sensor_id;sensor_type;location;lat;lon;timestamp;P1;durP1;ratioP1;P2;durP2;ratioP2
37275;SDS011;23166;51.150;21.620;2023-01-28T00:02:04;2.60;;;1.90;;
37275;SDS011;23166;51.150;21.620;2023-01-28T00:04:45;4.50;;;1.00;;
37275;SDS011;23166;51.150;21.620;2023-01-28T00:07:26;2.70;;;1.90;;
37275;SDS011;23166;51.150;21.620;2023-01-28T00:12:33;1.40;;;1.30;;
37275;SDS011;23166;51.150;21.620;2023-01-28T00:17:27;1.10;;;1.10;;
37275;SDS011;23166;51.150;21.620;2023-01-28T00:19:54;0.80;;;0.80;;
37275;SDS011;23166;51.150;21.620;2023-01-28T00:24:48;0.50;;;0.40;;
37275;SDS011;23166;51.150;21.620;2023-01-28T00:27:15;0.40;;;0.40;;
37275;SDS011;23166;51.150;21.620;2023-01-28T00:32:23;1.70;;;1.60;;
37275;SDS011;23166;51.150;21.620;2023-01-28T00:35:04;3.00;;;1.90;;
37275;SDS011;23166;51.150;21.620;2023-01-28T00:37:45;2.40;;;2.20;;
37275;SDS011;23166;51.150;21.620;2023-01-28T00:40:13;1.00;;;1.00;;
37275;SDS011;23166;51.150;21.620;2023-01-28T00:42:40;2.40;;;2.10;;
37275;SDS011;23166;51.150;21.620;2023-01-28T00:47:34;2.00;;;1.30;;
37275;SDS011;23166;51.150;21.620;2023-01-28T00:50:15;3.00;;;2.30;;
37275;SDS011;23166;51.150;21.620;2023-01-28T00:52:42;1.90;;;1.80;;
37275;SDS011;23166;51.150;21.620;2023-01-28T00:55:10;3.10;;;1.40;;
37275;SDS011;23166;51.150;21.620;2023-01-28T00:57:51;3.50;;;3.00;;
37275;SDS011;23166;51.150;21.620;2023-01-28T01:02:47;2.50;;;0.90;;
37275;SDS011;23166;51.150;21.620;2023-01-28T01:07:41;2.00;;;1.40;;
37275;SDS011;23166;51.150;21.620;2023-01-28T01:10:15;0.60;;;0.60;;
37275;SDS011;23166;51.150;21.620;2023-01-28T01:12:45;1.40;;;1.10;;
37275;SDS011;23166;51.150;21.620;2023-01-28T01:15:26;1.10;;;1.00;;
37275;SDS011;23166;51.150;21.620;2023-01-28T01:18:07;2.10;;;1.90;;
37275;SDS011;23166;51.150;21.620;2023-01-28T01:20:47;1.40;;;1.10;;
37275;SDS011;23166;51.150;21.620;2023-01-28T01:25:41;0.60;;;0.60;;
37275;SDS011;23166;51.150;21.620;2023-01-28T01:28:22;2.20;;;2.00;;
37275;SDS011;23166;51.150;21.620;2023-01-28T01:30:49;1.70;;;1.60;;
37275;SDS011;23166;51.150;21.620;2023-01-28T01:33:16;2.00;;;1.80;;
37275;SDS011;23166;51.150;21.620;2023-01-28T01:38:10;1.60;;;0.30;;
37275;SDS011;23166;51.150;21.620;2023-01-28T01:43:15;2.80;;;2.50;;
37275;SDS011;23166;51.150;21.620;2023-01-28T01:45:59;0.40;;;0.40;;
37275;SDS011;23166;51.150;21.620;2023-01-28T01:48:27;1.70;;;1.60;;
37275;SDS011;23166;51.150;21.620;2023-01-28T01:53:27;0.80;;;0.80;;
37275;SDS011;23166;51.150;21.620;2023-01-28T01:55:58;0.30;;;0.30;;
37275;SDS011;23166;51.150;21.620;2023-01-28T01:58:31;1.90;;;1.70;;
37275;SDS011;23166;51.150;21.620;2023-01-28T02:06:31;0.30;;;0.30;;
37275;SDS011;23166;51.150;21.620;2023-01-28T02:08:58;0.70;;;0.70;;
37275;SDS011;23166;51.150;21.620;2023-01-28T02:11:40;1.80;;;1.60;;
37275;SDS011;23166;51.150;21.620;2023-01-28T02:14:06;1.40;;;1.00;;
37275;SDS011;23166;51.150;21.620;2023-01-28T02:19:00;1.60;;;1.00;;
37275;SDS011;23166;51.150;21.620;2023-01-28T02:24:50;4.60;;;1.70;;
37275;SDS011;23166;51.150;21.620;2023-01-28T02:27:30;3.50;;;2.90;;
37275;SDS011;23166;51.150;21.620;2023-01-28T02:30:06;6.80;;;3.70;;
37275;SDS011;23166;51.150;21.620;2023-01-28T02:32:55;2.30;;;1.90;;
37275;SDS011;23166;51.150;21.620;2023-01-28T02:35:41;5.70;;;2.20;;
37275;SDS011;23166;51.150;21.620;2023-01-28T02:38:15;0.50;;;0.50;;
37275;SDS011;23166;51.150;21.620;2023-01-28T02:41:12;1.10;;;1.10;;
37275;SDS011;23166;51.150;21.620;2023-01-28T02:43:42;3.60;;;2.70;;
37275;SDS011;23166;51.150;21.620;2023-01-28T02:46:34;13.20;;;1.70;;
37275;SDS011;23166;51.150;21.620;2023-01-28T02:49:25;3.30;;;1.80;;
37275;SDS011;23166;51.150;21.620;2023-01-28T02:57:28;1.80;;;1.70;;
37275;SDS011;23166;51.150;21.620;2023-01-28T03:02:57;4.70;;;2.10;;
37275;SDS011;23166;51.150;21.620;2023-01-28T03:05:30;0.80;;;0.30;;
37275;SDS011;23166;51.150;21.620;2023-01-28T03:08:01;4.70;;;1.50;;
37275;SDS011;23166;51.150;21.620;2023-01-28T03:10:50;1.00;;;1.00;;
37275;SDS011;23166;51.150;21.620;2023-01-28T03:13:37;1.80;;;1.00;;
37275;SDS011;23166;51.150;21.620;2023-01-28T03:16:23;0.80;;;0.80;;
37275;SDS011;23166;51.150;21.620;2023-01-28T03:19:23;2.60;;;0.70;;
37275;SDS011;23166;51.150;21.620;2023-01-28T03:22:09;1.30;;;1.30;;
37275;SDS011;23166;51.150;21.620;2023-01-28T03:25:11;0.50;;;0.50;;
37275;SDS011;23166;51.150;21.620;2023-01-28T03:28:02;2.60;;;1.60;;
37275;SDS011;23166;51.150;21.620;2023-01-28T03:34:04;8.00;;;3.00;;
37275;SDS011;23166;51.150;21.620;2023-01-28T03:36:50;3.80;;;2.00;;
37275;SDS011;23166;51.150;21.620;2023-01-28T03:39:23;0.90;;;0.90;;
37275;SDS011;23166;51.150;21.620;2023-01-28T03:44:22;1.00;;;1.00;;
37275;SDS011;23166;51.150;21.620;2023-01-28T03:47:25;2.60;;;1.40;;
37275;SDS011;23166;51.150;21.620;2023-01-28T03:50:07;0.90;;;0.90;;
37275;SDS011;23166;51.150;21.620;2023-01-28T03:52:34;2.40;;;2.30;;
37275;SDS011;23166;51.150;21.620;2023-01-28T03:55:01;1.50;;;1.30;;
37275;SDS011;23166;51.150;21.620;2023-01-28T03:57:39;2.00;;;1.70;;
37275;SDS011;23166;51.150;21.620;2023-01-28T04:00:06;5.80;;;3.00;;
37275;SDS011;23166;51.150;21.620;2023-01-28T04:02:36;0.80;;;0.80;;
37275;SDS011;23166;51.150;21.620;2023-01-28T04:05:07;4.60;;;2.00;;
37275;SDS011;23166;51.150;21.620;2023-01-28T04:07:38;1.10;;;1.10;;
37275;SDS011;23166;51.150;21.620;2023-01-28T04:10:06;3.00;;;1.20;;
37275;SDS011;23166;51.150;21.620;2023-01-28T04:12:34;0.90;;;0.90;;
37275;SDS011;23166;51.150;21.620;2023-01-28T04:15:17;0.70;;;0.70;;
37275;SDS011;23166;51.150;21.620;2023-01-28T04:17:47;3.20;;;1.50;;
37275;SDS011;23166;51.150;21.620;2023-01-28T04:20:15;1.30;;;0.80;;
37275;SDS011;23166;51.150;21.620;2023-01-28T04:22:42;2.60;;;1.80;;
37275;SDS011;23166;51.150;21.620;2023-01-28T04:25:23;3.30;;;3.00;;
37275;SDS011;23166;51.150;21.620;2023-01-28T04:30:17;7.70;;;2.40;;
37275;SDS011;23166;51.150;21.620;2023-01-28T04:32:47;0.80;;;0.60;;
37275;SDS011;23166;51.150;21.620;2023-01-28T04:35:17;1.90;;;1.80;;
37275;SDS011;23166;51.150;21.620;2023-01-28T04:37:58;1.20;;;1.20;;
37275;SDS011;23166;51.150;21.620;2023-01-28T04:43:05;1.60;;;0.80;;
37275;SDS011;23166;51.150;21.620;2023-01-28T04:47:59;1.00;;;1.00;;
37275;SDS011;23166;51.150;21.620;2023-01-28T04:53:07;2.40;;;1.60;;
37275;SDS011;23166;51.150;21.620;2023-01-28T04:55:34;4.90;;;2.00;;
37275;SDS011;23166;51.150;21.620;2023-01-28T04:58:14;0.80;;;0.80;;
37275;SDS011;23166;51.150;21.620;2023-01-28T05:00:57;2.10;;;2.00;;
37275;SDS011;23166;51.150;21.620;2023-01-28T05:03:24;1.20;;;1.20;;
37275;SDS011;23166;51.150;21.620;2023-01-28T05:06:05;4.20;;;3.10;;
37275;SDS011;23166;51.150;21.620;2023-01-28T05:08:32;1.20;;;1.20;;
37275;SDS011;23166;51.150;21.620;2023-01-28T05:10:59;2.10;;;1.60;;
37275;SDS011;23166;51.150;21.620;2023-01-28T05:16:07;5.00;;;2.90;;
37275;SDS011;23166;51.150;21.620;2023-01-28T05:21:01;1.60;;;1.40;;
37275;SDS011;23166;51.150;21.620;2023-01-28T05:25:54;0.70;;;0.70;;
37275;SDS011;23166;51.150;21.620;2023-01-28T05:30:48;3.60;;;2.50;;
37275;SDS011;23166;51.150;21.620;2023-01-28T05:35:42;0.90;;;0.90;;
37275;SDS011;23166;51.150;21.620;2023-01-28T05:38:10;2.20;;;1.90;;
37275;SDS011;23166;51.150;21.620;2023-01-28T05:43:03;5.80;;;3.70;;
37275;SDS011;23166;51.150;21.620;2023-01-28T05:45:45;2.30;;;1.90;;
37275;SDS011;23166;51.150;21.620;2023-01-28T05:48:13;12.70;;;1.20;;
37275;SDS011;23166;51.150;21.620;2023-01-28T05:50:40;1.00;;;1.00;;
37275;SDS011;23166;51.150;21.620;2023-01-28T05:53:08;4.20;;;3.80;;
37275;SDS011;23166;51.150;21.620;2023-01-28T05:55:35;1.50;;;1.40;;
37275;SDS011;23166;51.150;21.620;2023-01-28T05:58:01;3.30;;;2.80;;
37275;SDS011;23166;51.150;21.620;2023-01-28T06:00:28;4.00;;;1.20;;
37275;SDS011;23166;51.150;21.620;2023-01-28T06:02:55;2.20;;;1.60;;
37275;SDS011;23166;51.150;21.620;2023-01-28T06:05:36;2.10;;;2.00;;
37275;SDS011;23166;51.150;21.620;2023-01-28T06:08:17;2.70;;;2.00;;
37275;SDS011;23166;51.150;21.620;2023-01-28T06:10:45;6.70;;;3.80;;
37275;SDS011;23166;51.150;21.620;2023-01-28T06:13:12;5.10;;;3.40;;
37275;SDS011;23166;51.150;21.620;2023-01-28T06:15:39;5.00;;;3.20;;
37275;SDS011;23166;51.150;21.620;2023-01-28T06:20:33;1.50;;;1.20;;
37275;SDS011;23166;51.150;21.620;2023-01-28T06:23:14;2.30;;;1.20;;
37275;SDS011;23166;51.150;21.620;2023-01-28T06:25:41;4.40;;;2.20;;
37275;SDS011;23166;51.150;21.620;2023-01-28T06:28:08;7.30;;;2.50;;
37275;SDS011;23166;51.150;21.620;2023-01-28T06:30:35;5.60;;;2.40;;
37275;SDS011;23166;51.150;21.620;2023-01-28T06:35:29;6.40;;;4.40;;
37275;SDS011;23166;51.150;21.620;2023-01-28T06:37:56;3.10;;;2.30;;
37275;SDS011;23166;51.150;21.620;2023-01-28T06:40:23;8.00;;;3.80;;
37275;SDS011;23166;51.150;21.620;2023-01-28T06:42:51;3.50;;;3.20;;
37275;SDS011;23166;51.150;21.620;2023-01-28T06:47:45;2.30;;;2.10;;
37275;SDS011;23166;51.150;21.620;2023-01-28T06:52:39;5.50;;;3.60;;
37275;SDS011;23166;51.150;21.620;2023-01-28T06:55:07;10.80;;;2.00;;
37275;SDS011;23166;51.150;21.620;2023-01-28T06:57:39;6.60;;;3.40;;
37275;SDS011;23166;51.150;21.620;2023-01-28T07:00:20;5.70;;;3.00;;
37275;SDS011;23166;51.150;21.620;2023-01-28T07:02:47;5.00;;;2.50;;
37275;SDS011;23166;51.150;21.620;2023-01-28T07:07:54;2.00;;;1.90;;
37275;SDS011;23166;51.150;21.620;2023-01-28T07:12:48;2.10;;;2.00;;
37275;SDS011;23166;51.150;21.620;2023-01-28T07:15:29;5.50;;;5.10;;
37275;SDS011;23166;51.150;21.620;2023-01-28T07:17:56;4.20;;;3.40;;
37275;SDS011;23166;51.150;21.620;2023-01-28T07:22:50;7.60;;;1.80;;
37275;SDS011;23166;51.150;21.620;2023-01-28T07:25:17;4.90;;;3.70;;
37275;SDS011;23166;51.150;21.620;2023-01-28T07:27:58;14.60;;;6.30;;
37275;SDS011;23166;51.150;21.620;2023-01-28T07:32:53;4.30;;;3.80;;
37275;SDS011;23166;51.150;21.620;2023-01-28T07:35:21;16.10;;;4.40;;
37275;SDS011;23166;51.150;21.620;2023-01-28T07:37:56;7.30;;;4.80;;
37275;SDS011;23166;51.150;21.620;2023-01-28T07:40:25;8.20;;;3.60;;
37275;SDS011;23166;51.150;21.620;2023-01-28T07:42:52;6.30;;;3.40;;
37275;SDS011;23166;51.150;21.620;2023-01-28T07:45:24;6.40;;;4.20;;
37275;SDS011;23166;51.150;21.620;2023-01-28T07:48:07;4.10;;;3.80;;
37275;SDS011;23166;51.150;21.620;2023-01-28T07:50:36;11.20;;;5.10;;
37275;SDS011;23166;51.150;21.620;2023-01-28T07:53:05;7.60;;;4.40;;
37275;SDS011;23166;51.150;21.620;2023-01-28T07:55:47;4.90;;;4.50;;
37275;SDS011;23166;51.150;21.620;2023-01-28T08:00:58;6.70;;;5.60;;
37275;SDS011;23166;51.150;21.620;2023-01-28T08:03:26;6.70;;;5.70;;
37275;SDS011;23166;51.150;21.620;2023-01-28T08:06:07;9.40;;;3.50;;
37275;SDS011;23166;51.150;21.620;2023-01-28T08:08:34;11.10;;;6.20;;
37275;SDS011;23166;51.150;21.620;2023-01-28T08:11:08;15.20;;;7.00;;
37275;SDS011;23166;51.150;21.620;2023-01-28T08:13:51;7.00;;;4.60;;
37275;SDS011;23166;51.150;21.620;2023-01-28T08:18:58;2.30;;;2.20;;
37275;SDS011;23166;51.150;21.620;2023-01-28T08:23:52;3.90;;;2.60;;
37275;SDS011;23166;51.150;21.620;2023-01-28T08:26:20;7.10;;;3.80;;
37275;SDS011;23166;51.150;21.620;2023-01-28T08:29:01;11.10;;;6.50;;
37275;SDS011;23166;51.150;21.620;2023-01-28T08:31:28;6.60;;;6.00;;
37275;SDS011;23166;51.150;21.620;2023-01-28T08:33:55;19.70;;;7.60;;
37275;SDS011;23166;51.150;21.620;2023-01-28T08:39:03;4.70;;;2.80;;
37275;SDS011;23166;51.150;21.620;2023-01-28T08:41:31;7.30;;;6.40;;
37275;SDS011;23166;51.150;21.620;2023-01-28T08:44:12;4.10;;;3.80;;
37275;SDS011;23166;51.150;21.620;2023-01-28T08:46:39;5.80;;;4.80;;
37275;SDS011;23166;51.150;21.620;2023-01-28T08:51:33;4.20;;;3.80;;
37275;SDS011;23166;51.150;21.620;2023-01-28T08:54:00;6.60;;;5.90;;
37275;SDS011;23166;51.150;21.620;2023-01-28T08:56:28;5.00;;;4.10;;
37275;SDS011;23166;51.150;21.620;2023-01-28T08:58:56;5.40;;;4.10;;
37275;SDS011;23166;51.150;21.620;2023-01-28T09:01:36;5.30;;;4.80;;
37275;SDS011;23166;51.150;21.620;2023-01-28T09:04:17;3.40;;;3.00;;
37275;SDS011;23166;51.150;21.620;2023-01-28T09:06:58;6.70;;;5.30;;
37275;SDS011;23166;51.150;21.620;2023-01-28T09:09:40;7.10;;;5.20;;
37275;SDS011;23166;51.150;21.620;2023-01-28T09:14:50;14.20;;;7.60;;
37275;SDS011;23166;51.150;21.620;2023-01-28T09:17:19;10.20;;;5.60;;
37275;SDS011;23166;51.150;21.620;2023-01-28T09:20:00;1.70;;;1.60;;
37275;SDS011;23166;51.150;21.620;2023-01-28T09:22:41;13.20;;;4.70;;
37275;SDS011;23166;51.150;21.620;2023-01-28T09:25:22;3.80;;;3.40;;
37275;SDS011;23166;51.150;21.620;2023-01-28T09:27:49;6.70;;;3.90;;
37275;SDS011;23166;51.150;21.620;2023-01-28T09:30:30;6.30;;;5.60;;
37275;SDS011;23166;51.150;21.620;2023-01-28T09:32:57;4.50;;;3.70;;
37275;SDS011;23166;51.150;21.620;2023-01-28T09:37:55;4.30;;;4.00;;
37275;SDS011;23166;51.150;21.620;2023-01-28T09:40:35;6.70;;;5.30;;
37275;SDS011;23166;51.150;21.620;2023-01-28T09:46:07;6.00;;;3.50;;
37275;SDS011;23166;51.150;21.620;2023-01-28T09:48:54;3.10;;;2.90;;
37275;SDS011;23166;51.150;21.620;2023-01-28T09:51:39;11.70;;;5.00;;
37275;SDS011;23166;51.150;21.620;2023-01-28T09:54:33;6.40;;;3.60;;
37275;SDS011;23166;51.150;21.620;2023-01-28T09:57:28;15.20;;;4.80;;
37275;SDS011;23166;51.150;21.620;2023-01-28T09:59:57;7.90;;;2.90;;
37275;SDS011;23166;51.150;21.620;2023-01-28T10:02:58;5.00;;;1.90;;
37275;SDS011;23166;51.150;21.620;2023-01-28T10:09:24;5.90;;;4.70;;
37275;SDS011;23166;51.150;21.620;2023-01-28T10:17:28;4.40;;;3.60;;
37275;SDS011;23166;51.150;21.620;2023-01-28T10:22:43;12.30;;;7.60;;
37275;SDS011;23166;51.150;21.620;2023-01-28T10:25:27;9.40;;;3.80;;
37275;SDS011;23166;51.150;21.620;2023-01-28T10:27:55;1.30;;;1.30;;
37275;SDS011;23166;51.150;21.620;2023-01-28T10:30:38;10.30;;;3.30;;
37275;SDS011;23166;51.150;21.620;2023-01-28T10:33:40;3.90;;;1.70;;
37275;SDS011;23166;51.150;21.620;2023-01-28T10:36:22;5.60;;;1.60;;
37275;SDS011;23166;51.150;21.620;2023-01-28T10:38:50;7.00;;;2.40;;
37275;SDS011;23166;51.150;21.620;2023-01-28T10:41:20;4.10;;;3.50;;
37275;SDS011;23166;51.150;21.620;2023-01-28T10:44:01;12.10;;;4.70;;
37275;SDS011;23166;51.150;21.620;2023-01-28T10:46:31;9.40;;;5.10;;
37275;SDS011;23166;51.150;21.620;2023-01-28T10:51:37;8.30;;;3.60;;
37275;SDS011;23166;51.150;21.620;2023-01-28T10:54:18;6.20;;;3.90;;
37275;SDS011;23166;51.150;21.620;2023-01-28T10:56:47;4.70;;;2.70;;
37275;SDS011;23166;51.150;21.620;2023-01-28T10:59:34;3.50;;;3.20;;
37275;SDS011;23166;51.150;21.620;2023-01-28T11:02:30;10.90;;;3.50;;
37275;SDS011;23166;51.150;21.620;2023-01-28T11:08:22;2.70;;;2.50;;
37275;SDS011;23166;51.150;21.620;2023-01-28T11:11:13;4.40;;;2.60;;
37275;SDS011;23166;51.150;21.620;2023-01-28T11:13:50;2.50;;;2.20;;
37275;SDS011;23166;51.150;21.620;2023-01-28T11:16:19;12.30;;;4.20;;
37275;SDS011;23166;51.150;21.620;2023-01-28T11:19:01;3.40;;;2.60;;
37275;SDS011;23166;51.150;21.620;2023-01-28T11:21:49;2.20;;;2.00;;
37275;SDS011;23166;51.150;21.620;2023-01-28T11:24:25;2.10;;;1.90;;
37275;SDS011;23166;51.150;21.620;2023-01-28T11:26:54;1.90;;;1.10;;
37275;SDS011;23166;51.150;21.620;2023-01-28T11:29:38;10.20;;;3.00;;
37275;SDS011;23166;51.150;21.620;2023-01-28T11:32:15;6.80;;;3.00;;
37275;SDS011;23166;51.150;21.620;2023-01-28T11:34:57;8.10;;;2.70;;
37275;SDS011;23166;51.150;21.620;2023-01-28T11:37:26;3.20;;;2.50;;
37275;SDS011;23166;51.150;21.620;2023-01-28T11:40:16;2.20;;;1.80;;
37275;SDS011;23166;51.150;21.620;2023-01-28T12:05:54;2.30;;;2.20;;
37275;SDS011;23166;51.150;21.620;2023-01-28T12:08:25;2.80;;;1.80;;
37275;SDS011;23166;51.150;21.620;2023-01-28T12:13:50;8.80;;;4.00;;
37275;SDS011;23166;51.150;21.620;2023-01-28T12:22:06;4.90;;;3.40;;
37275;SDS011;23166;51.150;21.620;2023-01-28T12:24:57;2.60;;;2.10;;
37275;SDS011;23166;51.150;21.620;2023-01-28T12:34:24;7.90;;;5.20;;
37275;SDS011;23166;51.150;21.620;2023-01-28T12:36:54;4.70;;;3.90;;
37275;SDS011;23166;51.150;21.620;2023-01-28T12:40:04;6.30;;;2.80;;
37275;SDS011;23166;51.150;21.620;2023-01-28T12:42:31;5.80;;;2.80;;
37275;SDS011;23166;51.150;21.620;2023-01-28T12:45:24;6.00;;;5.00;;
37275;SDS011;23166;51.150;21.620;2023-01-28T12:47:56;2.90;;;2.70;;
37275;SDS011;23166;51.150;21.620;2023-01-28T12:50:45;4.00;;;3.60;;
37275;SDS011;23166;51.150;21.620;2023-01-28T12:55:50;13.00;;;5.40;;
37275;SDS011;23166;51.150;21.620;2023-01-28T12:58:24;5.00;;;3.10;;
37275;SDS011;23166;51.150;21.620;2023-01-28T13:01:00;11.40;;;6.80;;
37275;SDS011;23166;51.150;21.620;2023-01-28T13:03:55;9.10;;;7.50;;
37275;SDS011;23166;51.150;21.620;2023-01-28T13:06:51;8.10;;;5.60;;
37275;SDS011;23166;51.150;21.620;2023-01-28T13:09:24;9.60;;;5.30;;
37275;SDS011;23166;51.150;21.620;2023-01-28T13:12:06;11.90;;;7.70;;
37275;SDS011;23166;51.150;21.620;2023-01-28T13:14:34;12.30;;;7.60;;
37275;SDS011;23166;51.150;21.620;2023-01-28T13:17:32;11.40;;;6.80;;
37275;SDS011;23166;51.150;21.620;2023-01-28T13:20:00;19.80;;;6.90;;
37275;SDS011;23166;51.150;21.620;2023-01-28T13:22:35;6.50;;;4.80;;
37275;SDS011;23166;51.150;21.620;2023-01-28T13:25:22;4.80;;;4.40;;
37275;SDS011;23166;51.150;21.620;2023-01-28T13:28:05;9.10;;;5.20;;
37275;SDS011;23166;51.150;21.620;2023-01-28T13:30:35;11.60;;;7.20;;
37275;SDS011;23166;51.150;21.620;2023-01-28T13:33:31;9.90;;;5.70;;
37275;SDS011;23166;51.150;21.620;2023-01-28T13:36:03;6.40;;;5.80;;
37275;SDS011;23166;51.150;21.620;2023-01-28T13:38:32;19.40;;;9.80;;
37275;SDS011;23166;51.150;21.620;2023-01-28T13:41:13;11.60;;;4.10;;
37275;SDS011;23166;51.150;21.620;2023-01-28T13:43:41;10.40;;;5.80;;
37275;SDS011;23166;51.150;21.620;2023-01-28T13:46:11;14.50;;;5.30;;
37275;SDS011;23166;51.150;21.620;2023-01-28T13:51:28;7.50;;;4.50;;
37275;SDS011;23166;51.150;21.620;2023-01-28T13:54:16;8.90;;;5.30;;
37275;SDS011;23166;51.150;21.620;2023-01-28T14:18:51;10.00;;;4.80;;
37275;SDS011;23166;51.150;21.620;2023-01-28T14:21:33;5.90;;;4.10;;
37275;SDS011;23166;51.150;21.620;2023-01-28T14:24:02;9.80;;;6.80;;
37275;SDS011;23166;51.150;21.620;2023-01-28T14:26:54;16.80;;;8.90;;
37275;SDS011;23166;51.150;21.620;2023-01-28T14:29:46;10.00;;;7.30;;
37275;SDS011;23166;51.150;21.620;2023-01-28T14:32:30;11.30;;;6.30;;
37275;SDS011;23166;51.150;21.620;2023-01-28T14:35:18;6.60;;;5.20;;
37275;SDS011;23166;51.150;21.620;2023-01-28T14:37:45;12.10;;;6.10;;
37275;SDS011;23166;51.150;21.620;2023-01-28T14:40:27;5.70;;;5.10;;
37275;SDS011;23166;51.150;21.620;2023-01-28T14:42:56;11.10;;;7.60;;
37275;SDS011;23166;51.150;21.620;2023-01-28T14:59:35;5.10;;;3.70;;
37275;SDS011;23166;51.150;21.620;2023-01-28T15:02:23;4.00;;;3.70;;
37275;SDS011;23166;51.150;21.620;2023-01-28T15:04:52;3.90;;;3.70;;
37275;SDS011;23166;51.150;21.620;2023-01-28T15:07:33;9.80;;;8.70;;
37275;SDS011;23166;51.150;21.620;2023-01-28T15:10:05;8.10;;;5.00;;
37275;SDS011;23166;51.150;21.620;2023-01-28T15:12:36;8.20;;;5.30;;
37275;SDS011;23166;51.150;21.620;2023-01-28T15:18:18;10.20;;;7.50;;
37275;SDS011;23166;51.150;21.620;2023-01-28T15:21:01;7.80;;;7.10;;
37275;SDS011;23166;51.150;21.620;2023-01-28T15:23:34;14.50;;;6.20;;
37275;SDS011;23166;51.150;21.620;2023-01-28T15:26:19;8.80;;;7.50;;
37275;SDS011;23166;51.150;21.620;2023-01-28T15:29:00;8.30;;;5.00;;
37275;SDS011;23166;51.150;21.620;2023-01-28T15:31:32;13.10;;;8.30;;
37275;SDS011;23166;51.150;21.620;2023-01-28T15:36:37;16.30;;;8.50;;
37275;SDS011;23166;51.150;21.620;2023-01-28T15:39:13;13.00;;;5.10;;
37275;SDS011;23166;51.150;21.620;2023-01-28T15:41:43;10.80;;;7.50;;
37275;SDS011;23166;51.150;21.620;2023-01-28T15:44:29;10.40;;;5.20;;
37275;SDS011;23166;51.150;21.620;2023-01-28T15:46:59;7.90;;;7.20;;
37275;SDS011;23166;51.150;21.620;2023-01-28T15:49:30;12.90;;;4.70;;
37275;SDS011;23166;51.150;21.620;2023-01-28T15:52:13;10.20;;;4.40;;
37275;SDS011;23166;51.150;21.620;2023-01-28T15:54:43;12.60;;;6.60;;
37275;SDS011;23166;51.150;21.620;2023-01-28T15:57:24;8.40;;;5.90;;
37275;SDS011;23166;51.150;21.620;2023-01-28T16:02:32;3.20;;;3.00;;
37275;SDS011;23166;51.150;21.620;2023-01-28T16:05:05;11.40;;;6.00;;
37275;SDS011;23166;51.150;21.620;2023-01-28T16:07:44;6.50;;;5.00;;
37275;SDS011;23166;51.150;21.620;2023-01-28T16:10:21;4.80;;;4.50;;
37275;SDS011;23166;51.150;21.620;2023-01-28T16:12:53;17.60;;;9.10;;
37275;SDS011;23166;51.150;21.620;2023-01-28T16:15:21;16.90;;;7.50;;
37275;SDS011;23166;51.150;21.620;2023-01-28T16:18:02;20.70;;;5.40;;
37275;SDS011;23166;51.150;21.620;2023-01-28T16:20:31;9.50;;;6.30;;
37275;SDS011;23166;51.150;21.620;2023-01-28T16:23:01;16.50;;;5.70;;
37275;SDS011;23166;51.150;21.620;2023-01-28T16:27:59;7.10;;;6.50;;
37275;SDS011;23166;51.150;21.620;2023-01-28T16:30:28;14.50;;;6.10;;
37275;SDS011;23166;51.150;21.620;2023-01-28T16:33:21;15.50;;;8.90;;
37275;SDS011;23166;51.150;21.620;2023-01-28T16:35:48;9.80;;;5.70;;
37275;SDS011;23166;51.150;21.620;2023-01-28T16:38:16;6.50;;;5.90;;
37275;SDS011;23166;51.150;21.620;2023-01-28T16:40:45;13.00;;;6.70;;
37275;SDS011;23166;51.150;21.620;2023-01-28T16:43:14;9.10;;;8.20;;
37275;SDS011;23166;51.150;21.620;2023-01-28T16:45:41;12.40;;;4.90;;
37275;SDS011;23166;51.150;21.620;2023-01-28T16:48:08;11.40;;;6.70;;
37275;SDS011;23166;51.150;21.620;2023-01-28T16:50:39;9.60;;;4.70;;
37275;SDS011;23166;51.150;21.620;2023-01-28T16:53:25;19.90;;;6.50;;
37275;SDS011;23166;51.150;21.620;2023-01-28T16:55:54;17.90;;;7.60;;
37275;SDS011;23166;51.150;21.620;2023-01-28T16:58:23;8.40;;;6.20;;
37275;SDS011;23166;51.150;21.620;2023-01-28T17:00:51;13.70;;;8.10;;
37275;SDS011;23166;51.150;21.620;2023-01-28T17:03:32;6.00;;;5.50;;
37275;SDS011;23166;51.150;21.620;2023-01-28T17:05:59;17.40;;;7.40;;
37275;SDS011;23166;51.150;21.620;2023-01-28T17:10:55;10.30;;;8.20;;
37275;SDS011;23166;51.150;21.620;2023-01-28T17:13:22;5.50;;;4.90;;
37275;SDS011;23166;51.150;21.620;2023-01-28T17:16:03;8.70;;;5.60;;
37275;SDS011;23166;51.150;21.620;2023-01-28T17:18:31;12.10;;;7.20;;
37275;SDS011;23166;51.150;21.620;2023-01-28T17:21:05;7.70;;;6.80;;
37275;SDS011;23166;51.150;21.620;2023-01-28T17:23:33;7.20;;;6.30;;
37275;SDS011;23166;51.150;21.620;2023-01-28T17:28:34;4.00;;;3.40;;
37275;SDS011;23166;51.150;21.620;2023-01-28T17:31:06;3.80;;;3.50;;
37275;SDS011;23166;51.150;21.620;2023-01-28T17:33:55;5.40;;;3.70;;
37275;SDS011;23166;51.150;21.620;2023-01-28T17:36:23;18.10;;;4.50;;
37275;SDS011;23166;51.150;21.620;2023-01-28T17:38:51;5.20;;;4.80;;
37275;SDS011;23166;51.150;21.620;2023-01-28T17:41:32;10.90;;;7.00;;
37275;SDS011;23166;51.150;21.620;2023-01-28T17:44:00;3.90;;;3.60;;
37275;SDS011;23166;51.150;21.620;2023-01-28T17:46:40;9.00;;;4.90;;
37275;SDS011;23166;51.150;21.620;2023-01-28T17:49:21;7.20;;;4.10;;
37275;SDS011;23166;51.150;21.620;2023-01-28T17:51:48;7.00;;;3.90;;
37275;SDS011;23166;51.150;21.620;2023-01-28T17:56:42;7.00;;;3.80;;
37275;SDS011;23166;51.150;21.620;2023-01-28T17:59:23;9.20;;;5.50;;
37275;SDS011;23166;51.150;21.620;2023-01-28T18:02:05;15.70;;;5.80;;
37275;SDS011;23166;51.150;21.620;2023-01-28T18:04:46;8.30;;;3.80;;
37275;SDS011;23166;51.150;21.620;2023-01-28T18:07:13;5.00;;;4.00;;
37275;SDS011;23166;51.150;21.620;2023-01-28T18:09:42;8.30;;;3.40;;
37275;SDS011;23166;51.150;21.620;2023-01-28T18:12:12;2.20;;;2.10;;
37275;SDS011;23166;51.150;21.620;2023-01-28T18:14:53;3.70;;;3.40;;
37275;SDS011;23166;51.150;21.620;2023-01-28T18:17:21;2.80;;;1.80;;
37275;SDS011;23166;51.150;21.620;2023-01-28T18:19:55;6.70;;;3.50;;
37275;SDS011;23166;51.150;21.620;2023-01-28T18:22:22;4.30;;;2.30;;
37275;SDS011;23166;51.150;21.620;2023-01-28T18:24:50;3.60;;;3.30;;
37275;SDS011;23166;51.150;21.620;2023-01-28T18:27:17;1.70;;;1.60;;
37275;SDS011;23166;51.150;21.620;2023-01-28T18:29:46;4.20;;;3.30;;
37275;SDS011;23166;51.150;21.620;2023-01-28T18:32:14;7.40;;;3.90;;
37275;SDS011;23166;51.150;21.620;2023-01-28T18:34:41;9.20;;;5.30;;
37275;SDS011;23166;51.150;21.620;2023-01-28T18:37:08;15.10;;;7.50;;
37275;SDS011;23166;51.150;21.620;2023-01-28T18:42:03;3.40;;;3.00;;
37275;SDS011;23166;51.150;21.620;2023-01-28T18:44:30;2.80;;;2.60;;
37275;SDS011;23166;51.150;21.620;2023-01-28T18:46:57;4.30;;;3.90;;
37275;SDS011;23166;51.150;21.620;2023-01-28T18:51:51;3.40;;;2.40;;
37275;SDS011;23166;51.150;21.620;2023-01-28T18:57:00;1.90;;;1.80;;
37275;SDS011;23166;51.150;21.620;2023-01-28T18:59:40;5.30;;;4.00;;
37275;SDS011;23166;51.150;21.620;2023-01-28T19:04:35;12.00;;;2.40;;
37275;SDS011;23166;51.150;21.620;2023-01-28T19:07:16;2.70;;;2.60;;
37275;SDS011;23166;51.150;21.620;2023-01-28T19:09:43;11.70;;;5.40;;
37275;SDS011;23166;51.150;21.620;2023-01-28T19:12:24;9.00;;;6.30;;
37275;SDS011;23166;51.150;21.620;2023-01-28T19:17:32;2.90;;;2.70;;
37275;SDS011;23166;51.150;21.620;2023-01-28T19:19:59;6.70;;;5.10;;
37275;SDS011;23166;51.150;21.620;2023-01-28T19:22:40;3.50;;;2.80;;